Time;durP1;ratioP1;P1;durP2;ratioP2;P2;SDS_P1;SDS_P2;PMS_P1;PMS_P2;Temp;Humidity;BMP_temperature;BMP_pressure;BME280_temperature;BME280_humidity;BME280_pressure;Samples;Min_cycle;Max_cycle;Signal;HPM_P1;HPM_P2
2022/10/04 00:02:21;;;;;;;0.60;0.10;;;11.20;1.00;;;;;;5071455;28;20469;-74
2022/10/04 00:04:58;;;;;;;0.60;0.10;;;11.30;1.00;;;;;;5071423;28;20449;-74
2022/10/04 00:07:30;;;;;;;0.60;0.10;;;11.30;1.00;;;;;;5071715;28;20499;-73
2022/10/04 00:10:02;;;;;;;0.60;0.10;;;11.20;1.00;;;;;;5071263;28;20515;-73
2022/10/04 00:12:36;;;;;;;0.60;0.10;;;11.20;1.00;;;;;;5059172;28;20481;-73
2022/10/04 00:15:07;;;;;;;0.60;0.20;;;11.30;1.00;;;;;;5072154;28;20542;-74
2022/10/04 00:17:35;;;;;;;0.60;0.10;;;11.20;1.00;;;;;;5072034;28;20461;-74
2022/10/04 00:20:27;;;;;;;0.60;0.10;;;11.20;1.00;;;;;;5071660;28;20523;-74
2022/10/04 00:23:28;;;;;;;0.60;0.10;;;11.20;1.00;;;;;;5071120;28;20449;-74
2022/10/04 00:25:59;;;;;;;0.60;0.10;;;11.20;1.00;;;;;;5071402;28;20453;-74
2022/10/04 00:28:46;;;;;;;0.53;0.10;;;11.20;1.00;;;;;;5071467;28;20495;-74
2022/10/04 00:31:24;;;;;;;0.60;0.10;;;11.10;1.00;;;;;;5071533;28;20477;-75
2022/10/04 00:33:54;;;;;;;0.60;0.10;;;11.10;1.00;;;;;;5071526;28;20445;-74
2022/10/04 00:36:53;;;;;;;0.60;0.10;;;11.10;1.00;;;;;;5057582;28;20446;-73
2022/10/04 00:39:42;;;;;;;0.60;0.10;;;11.10;1.00;;;;;;5071798;28;20499;-74
2022/10/04 00:42:44;;;;;;;0.60;0.10;;;11.10;1.00;;;;;;5070952;28;20501;-74
2022/10/04 00:45:28;;;;;;;0.60;0.10;;;11.10;1.00;;;;;;5023839;28;21001;-73
2022/10/04 00:48:17;;;;;;;0.60;0.10;;;11.10;1.00;;;;;;5070919;28;21001;-74
2022/10/04 00:50:50;;;;;;;0.60;0.10;;;11.10;1.00;;;;;;5068230;28;20987;-74
2022/10/04 00:53:28;;;;;;;0.60;0.50;;;11.10;1.00;;;;;;5070988;28;20477;-74
2022/10/04 00:56:02;;;;;;;0.60;0.10;;;11.00;1.00;;;;;;5070849;28;20453;-74
2022/10/04 00:58:35;;;;;;;0.60;0.10;;;11.00;1.00;;;;;;5071614;28;20480;-74
2022/10/04 01:01:04;;;;;;;0.60;0.10;;;11.00;1.00;;;;;;5071936;28;20538;-74
2022/10/04 01:03:36;;;;;;;0.60;0.10;;;11.00;1.00;;;;;;5073265;28;20454;-74
2022/10/04 01:06:07;;;;;;;0.60;0.10;;;11.00;1.00;;;;;;5075725;28;20862;-74
2022/10/04 01:08:40;;;;;;;0.50;0.10;;;11.00;1.00;;;;;;5060155;28;20446;-76
2022/10/04 01:11:15;;;;;;;0.57;0.10;;;10.90;1.00;;;;;;5066307;28;20465;-75
2022/10/04 01:13:48;;;;;;;0.50;0.10;;;10.90;1.00;;;;;;5059000;28;20943;-73
2022/10/04 01:16:19;;;;;;;0.70;0.60;;;10.90;1.00;;;;;;5074459;28;20449;-74
2022/10/04 01:18:47;;;;;;;0.50;0.10;;;10.80;1.00;;;;;;5074628;28;20932;-74
2022/10/04 01:21:26;;;;;;;0.60;0.10;;;10.80;1.00;;;;;;5074343;28;20477;-74
2022/10/04 01:24:17;;;;;;;0.60;0.10;;;10.80;1.00;;;;;;5074131;28;20495;-73
2022/10/04 01:26:45;;;;;;;0.53;0.10;;;10.80;1.00;;;;;;5074341;28;20955;-73
2022/10/04 01:29:17;;;;;;;0.60;0.10;;;10.80;1.00;;;;;;5074311;28;20476;-73
2022/10/04 01:31:46;;;;;;;0.50;0.10;;;10.90;1.00;;;;;;5074423;28;20469;-73
2022/10/04 01:34:16;;;;;;;0.50;0.10;;;10.90;1.00;;;;;;5073918;28;20441;-73
2022/10/04 01:36:46;;;;;;;0.53;0.10;;;10.80;1.00;;;;;;5073988;28;20511;-73
2022/10/04 01:39:15;;;;;;;0.60;0.10;;;10.80;1.00;;;;;;5074103;28;20456;-74
2022/10/04 01:41:49;;;;;;;0.60;0.10;;;10.80;1.00;;;;;;5074049;28;20546;-74
2022/10/04 01:44:25;;;;;;;0.50;0.10;;;10.80;1.00;;;;;;5074104;28;20829;-74
2022/10/04 01:46:56;;;;;;;0.60;0.20;;;10.80;1.00;;;;;;5073993;28;20477;-73
2022/10/04 01:49:29;;;;;;;0.57;0.10;;;10.80;1.00;;;;;;5073245;28;20503;-74
2022/10/04 01:52:01;;;;;;;0.60;0.10;;;10.80;1.00;;;;;;5073470;28;20465;-74
2022/10/04 01:54:34;;;;;;;0.60;0.10;;;10.70;1.00;;;;;;5071791;28;20450;-74
2022/10/04 01:57:10;;;;;;;0.57;0.10;;;10.70;1.00;;;;;;5073813;28;20526;-73
2022/10/04 01:59:44;;;;;;;0.50;0.10;;;10.70;1.00;;;;;;5073668;28;20488;-74
2022/10/04 02:02:21;;;;;;;0.50;0.10;;;10.70;1.00;;;;;;5073212;28;20482;-73
2022/10/04 02:04:52;;;;;;;0.60;0.10;;;10.70;1.00;;;;;;5073563;28;20502;-73
2022/10/04 02:07:21;;;;;;;0.50;0.10;;;10.60;1.00;;;;;;5073945;28;20471;-73
2022/10/04 02:09:54;;;;;;;0.60;0.20;;;;;;;;;;5073514;28;20450;-73
2022/10/04 02:12:24;;;;;;;0.60;0.10;;;10.50;1.00;;;;;;5073340;28;20936;-73
2022/10/04 02:14:54;;;;;;;1.50;1.40;;;10.40;1.00;;;;;;5071906;28;20495;-73
2022/10/04 02:17:27;;;;;;;0.60;0.30;;;10.40;1.00;;;;;;5073396;28;20499;-74
2022/10/04 02:19:55;;;;;;;0.60;0.10;;;;;;;;;;5073395;28;20450;-73
2022/10/04 02:22:25;;;;;;;0.50;0.20;;;10.40;1.00;;;;;;5073183;28;20568;-73
2022/10/04 02:24:55;;;;;;;0.50;0.10;;;10.30;1.00;;;;;;5073204;28;20481;-74
2022/10/04 02:27:30;;;;;;;0.60;0.10;;;10.30;1.00;;;;;;5073569;28;20964;-72
2022/10/04 02:30:02;;;;;;;0.60;0.60;;;10.20;1.00;;;;;;5073885;28;20434;-74
2022/10/04 02:35:17;;;;;;;0.50;0.10;;;10.20;1.00;;;;;;5072967;28;20515;-74
2022/10/04 02:37:47;;;;;;;0.60;0.10;;;10.30;1.00;;;;;;5072993;28;20442;-73
2022/10/04 02:40:19;;;;;;;0.60;0.10;;;10.30;1.00;;;;;;5072755;28;20895;-73
2022/10/04 02:42:54;;;;;;;0.60;0.10;;;10.20;1.00;;;;;;5072945;28;20892;-73
2022/10/04 02:45:28;;;;;;;0.50;0.10;;;10.20;1.00;;;;;;5070706;28;20481;-73
2022/10/04 02:48:01;;;;;;;0.50;0.10;;;10.20;1.00;;;;;;5072869;28;20834;-75
2022/10/04 02:50:34;;;;;;;0.60;0.10;;;10.20;1.00;;;;;;5072530;28;20465;-74
2022/10/04 02:53:14;;;;;;;0.50;0.10;;;10.20;1.00;;;;;;5064102;28;20900;-74
2022/10/04 02:55:43;;;;;;;0.50;0.10;;;10.20;1.00;;;;;;5072611;28;20860;-73
2022/10/04 02:58:17;;;;;;;0.50;0.10;;;10.20;1.00;;;;;;5072582;28;20434;-72
2022/10/04 03:00:48;;;;;;;0.50;0.10;;;10.30;1.00;;;;;;5052396;28;20458;-73
2022/10/04 03:03:22;;;;;;;0.50;0.10;;;10.20;1.00;;;;;;5069122;28;20477;-74
2022/10/04 03:06:00;;;;;;;0.50;0.10;;;10.20;1.00;;;;;;5072516;28;20449;-75
2022/10/04 03:08:31;;;;;;;0.50;0.10;;;10.30;1.00;;;;;;5072325;28;20445;-75
2022/10/04 03:11:02;;;;;;;0.60;0.10;;;10.30;1.00;;;;;;5064030;28;20470;-74
2022/10/04 03:13:33;;;;;;;0.50;0.10;;;10.30;1.00;;;;;;5054914;28;20500;-75
2022/10/04 03:16:01;;;;;;;0.50;0.10;;;10.30;1.00;;;;;;5072093;28;20457;-75
2022/10/04 03:18:30;;;;;;;0.50;0.10;;;10.30;1.00;;;;;;5072103;28;20974;-73
2022/10/04 03:21:00;;;;;;;0.50;0.10;;;10.40;1.00;;;;;;5071762;28;20519;-73
2022/10/04 03:23:31;;;;;;;0.50;0.10;;;10.30;1.00;;;;;;5071842;28;20480;-74
2022/10/04 03:26:06;;;;;;;0.50;0.10;;;10.40;1.00;;;;;;5072079;28;21010;-74
2022/10/04 03:28:37;;;;;;;0.60;0.10;;;10.30;1.00;;;;;;5072029;28;20449;-74
2022/10/04 03:31:06;;;;;;;0.50;0.10;;;10.30;1.00;;;;;;5072233;28;20518;-74
2022/10/04 03:33:34;;;;;;;0.50;0.10;;;10.30;1.00;;;;;;5071670;28;20532;-75
2022/10/04 03:36:02;;;;;;;0.50;0.10;;;10.20;1.00;;;;;;5072075;28;20449;-74
2022/10/04 03:38:34;;;;;;;0.60;0.10;;;10.20;1.00;;;;;;5072257;28;20469;-73
2022/10/04 03:41:03;;;;;;;0.50;0.10;;;10.20;1.00;;;;;;5071911;28;21145;-74
2022/10/04 03:43:36;;;;;;;0.50;0.10;;;10.20;1.00;;;;;;5071624;28;20878;-74
2022/10/04 03:46:08;;;;;;;0.50;0.10;;;10.20;1.00;;;;;;5071945;28;20862;-74
2022/10/04 03:48:39;;;;;;;0.50;0.10;;;10.20;1.00;;;;;;5071461;28;20510;-73
2022/10/04 03:51:11;;;;;;;0.50;0.10;;;10.20;1.00;;;;;;5072104;28;20490;-73
2022/10/04 03:53:42;;;;;;;0.50;0.10;;;10.20;1.00;;;;;;5071287;28;20470;-74
2022/10/04 03:56:13;;;;;;;0.50;0.10;;;10.20;1.00;;;;;;5071747;28;20481;-74
2022/10/04 03:58:41;;;;;;;0.50;0.10;;;10.20;1.00;;;;;;5071891;28;20590;-74
2022/10/04 04:01:21;;;;;;;0.50;0.10;;;10.20;1.00;;;;;;5071267;28;20473;-73
2022/10/04 04:03:57;;;;;;;0.50;0.10;;;10.30;1.00;;;;;;5071381;28;20481;-73
2022/10/04 04:06:27;;;;;;;0.50;0.10;;;10.20;1.00;;;;;;5071463;28;20445;-74
2022/10/04 04:08:56;;;;;;;0.50;0.10;;;10.20;1.00;;;;;;5071495;28;20857;-74
2022/10/04 04:11:26;;;;;;;0.50;0.10;;;10.20;1.00;;;;;;5071014;28;20496;-73
2022/10/04 04:14:02;;;;;;;0.57;0.10;;;10.20;1.00;;;;;;5071174;28;20924;-73
2022/10/04 04:16:32;;;;;;;0.50;0.10;;;10.20;1.00;;;;;;5071678;28;20503;-73
2022/10/04 04:19:04;;;;;;;0.50;0.10;;;10.20;1.00;;;;;;5071868;28;20457;-73
2022/10/04 04:21:33;;;;;;;0.50;0.10;;;10.30;1.00;;;;;;5071387;28;20469;-73
2022/10/04 04:24:04;;;;;;;0.50;0.10;;;10.30;1.00;;;;;;5071623;28;20477;-73
2022/10/04 04:26:39;;;;;;;0.50;0.10;;;10.30;1.00;;;;;;5072081;28;20449;-73
2022/10/04 04:29:11;;;;;;;0.60;0.10;;;10.30;1.00;;;;;;5051531;28;20475;-73
2022/10/04 04:31:46;;;;;;;0.50;0.10;;;10.30;1.00;;;;;;5067362;28;20504;-73
2022/10/04 04:34:19;;;;;;;0.50;0.10;;;10.30;1.00;;;;;;5071038;28;20544;-73
2022/10/04 04:36:48;;;;;;;0.50;0.10;;;;;;;;;;5071079;28;20507;-73
2022/10/04 04:42:06;;;;;;;0.50;0.10;;;10.30;1.00;;;;;;5074727;28;20523;-73
2022/10/04 04:44:34;;;;;;;0.53;0.27;;;10.30;1.00;;;;;;5062645;22;20535;-72
2022/10/04 04:47:09;;;;;;;0.50;0.10;;;10.30;1.00;;;;;;5045864;28;20482;-73
2022/10/04 04:49:41;;;;;;;0.50;0.10;;;10.20;1.00;;;;;;5035981;28;20447;-72
2022/10/04 04:52:16;;;;;;;0.50;0.10;;;10.20;1.00;;;;;;5031538;28;20475;-72
2022/10/04 04:54:46;;;;;;;0.50;0.10;;;10.20;1.00;;;;;;5059235;28;20465;-73
2022/10/04 04:57:16;;;;;;;0.50;0.10;;;10.20;1.00;;;;;;5058395;28;20473;-71
2022/10/04 04:59:47;;;;;;;0.50;0.10;;;10.20;1.00;;;;;;5049322;28;20447;-72
2022/10/04 05:02:33;;;;;;;0.50;0.10;;;10.20;1.00;;;;;;5026261;28;20470;-71
2022/10/04 05:05:19;;;;;;;0.50;0.10;;;10.10;1.00;;;;;;5036880;28;20500;-71
2022/10/04 05:07:47;;;;;;;0.50;0.10;;;10.10;1.00;;;;;;5054968;28;20486;-72
2022/10/04 05:10:28;;;;;;;0.50;0.10;;;10.10;1.00;;;;;;5045880;28;21011;-72
2022/10/04 05:12:56;;;;;;;0.50;0.10;;;10.10;1.00;;;;;;5032533;28;20459;-72
2022/10/04 05:15:24;;;;;;;0.50;0.10;;;10.10;1.00;;;;;;5035081;28;20509;-72
2022/10/04 05:17:53;;;;;;;0.50;0.10;;;10.10;1.00;;;;;;5035012;28;20443;-72
2022/10/04 05:20:21;;;;;;;0.50;0.10;;;10.10;1.00;;;;;;5048014;28;20450;-71
2022/10/04 05:22:50;;;;;;;0.50;0.10;;;;;;;;;;5041259;28;20977;-73
2022/10/04 05:25:26;;;;;;;0.50;0.10;;;10.10;1.00;;;;;;5040788;28;20833;-73
2022/10/04 05:27:55;;;;;;;0.50;0.10;;;10.10;1.00;;;;;;5031341;28;20446;-73
2022/10/04 05:30:52;;;;;;;0.50;0.10;;;10.10;1.00;;;;;;5034659;28;20483;-72
2022/10/04 05:33:26;;;;;;;0.50;0.10;;;10.10;1.00;;;;;;5042637;28;20454;-73
2022/10/04 05:36:23;;;;;;;0.60;0.10;;;10.10;1.00;;;;;;5054872;28;20434;-73
2022/10/04 05:39:02;;;;;;;0.50;0.10;;;10.10;1.00;;;;;;5054895;28;20435;-73
2022/10/04 05:41:39;;;;;;;0.50;0.10;;;10.00;1.00;;;;;;5045067;28;20486;-72
2022/10/04 05:44:22;;;;;;;0.50;0.10;;;10.00;1.00;;;;;;5033139;28;20482;-73
2022/10/04 05:46:50;;;;;;;0.50;0.10;;;10.00;1.00;;;;;;5034459;28;20447;-73
2022/10/04 05:49:22;;;;;;;0.80;0.67;;;10.00;1.00;;;;;;5036793;28;20448;-73
2022/10/04 05:51:53;;;;;;;0.50;0.20;;;10.00;1.00;;;;;;5053311;28;20550;-73
2022/10/04 05:54:23;;;;;;;0.50;0.10;;;10.00;1.00;;;;;;5035627;28;20507;-73
2022/10/04 05:57:28;;;;;;;0.50;0.10;;;10.00;1.00;;;;;;5044916;28;20475;-73
2022/10/04 06:00:11;;;;;;;0.50;0.10;;;10.00;1.00;;;;;;5029804;28;20491;-73
2022/10/04 06:03:10;;;;;;;0.50;0.10;;;10.00;1.00;;;;;;5038853;28;20873;-73
2022/10/04 06:05:49;;;;;;;0.50;0.10;;;10.00;1.00;;;;;;5013920;28;20460;-72
2022/10/04 06:08:28;;;;;;;0.50;0.10;;;10.00;1.00;;;;;;5034050;28;20801;-72
2022/10/04 06:11:12;;;;;;;0.50;0.10;;;10.10;1.00;;;;;;5036389;28;20451;-72
2022/10/04 06:14:12;;;;;;;0.50;0.10;;;10.00;1.00;;;;;;5017322;28;20509;-74
2022/10/04 06:16:58;;;;;;;0.50;0.10;;;10.00;1.00;;;;;;5033448;28;20463;-72
2022/10/04 06:19:47;;;;;;;0.50;0.10;;;10.00;1.00;;;;;;5028866;28;20486;-72
2022/10/04 06:22:18;;;;;;;0.50;0.10;;;10.00;1.00;;;;;;5037258;28;20958;-73
2022/10/04 06:24:50;;;;;;;0.50;0.10;;;9.90;1.00;;;;;;5041549;28;20532;-72
2022/10/04 06:27:25;;;;;;;0.50;0.10;;;9.90;1.00;;;;;;5044179;28;20829;-73
2022/10/04 06:29:56;;;;;;;0.50;0.20;;;10.00;1.00;;;;;;5035032;28;20562;-73
2022/10/04 06:33:14;;;;;;;0.50;0.10;;;10.00;1.00;;;;;;5033491;28;20451;-73
2022/10/04 06:36:03;;;;;;;0.60;0.40;;;10.00;1.00;;;;;;4953610;29;20503;-74
2022/10/04 06:38:59;;;;;;;0.50;0.10;;;10.10;1.00;;;;;;4952177;28;20459;-72
2022/10/04 06:41:54;;;;;;;0.50;0.10;;;10.20;1.00;;;;;;5017650;28;20613;-73
2022/10/04 06:44:36;;;;;;;0.50;0.10;;;10.20;1.00;;;;;;5030916;28;20483;-72
2022/10/04 06:47:20;;;;;;;0.50;0.10;;;10.20;1.00;;;;;;5033858;28;20543;-73
2022/10/04 06:49:55;;;;;;;0.50;0.10;;;10.20;1.00;;;;;;5033613;28;20527;-73
2022/10/04 06:52:29;;;;;;;0.50;0.10;;;10.20;1.00;;;;;;5033942;28;20461;-74
2022/10/04 06:55:27;;;;;;;0.50;0.10;;;10.20;1.00;;;;;;5053756;28;20516;-75
2022/10/04 06:58:20;;;;;;;0.50;0.10;;;10.20;1.00;;;;;;5043495;28;20454;-73
2022/10/04 07:00:56;;;;;;;0.50;0.10;;;10.30;1.00;;;;;;5049363;28;20450;-73
2022/10/04 07:03:30;;;;;;;0.50;0.10;;;10.30;1.00;;;;;;5051527;28;20478;-74
2022/10/04 07:06:03;;;;;;;0.50;0.10;;;10.40;1.00;;;;;;5053065;28;20468;-76
2022/10/04 07:08:40;;;;;;;0.50;0.10;;;10.40;1.00;;;;;;5038415;28;21032;-74
2022/10/04 07:11:15;;;;;;;0.50;0.10;;;10.40;1.00;;;;;;5032487;28;20452;-73
2022/10/04 07:13:51;;;;;;;0.50;0.10;;;10.50;1.00;;;;;;5032299;28;20818;-73
2022/10/04 07:16:30;;;;;;;0.60;0.10;;;10.60;1.00;;;;;;5032597;28;20447;-72
2022/10/04 07:19:07;;;;;;;0.50;0.20;;;10.60;1.00;;;;;;5032177;28;20446;-74
2022/10/04 07:21:41;;;;;;;0.50;0.10;;;10.70;1.00;;;;;;5032622;28;20435;-72
2022/10/04 07:24:21;;;;;;;1.10;0.87;;;10.80;1.00;;;;;;5046149;28;20488;-75
2022/10/04 07:26:50;;;;;;;0.50;0.10;;;10.80;1.00;;;;;;5052308;28;20453;-71
2022/10/04 07:29:24;;;;;;;0.53;0.10;;;10.90;1.00;;;;;;5040316;28;20446;-72
2022/10/04 07:32:03;;;;;;;0.57;0.10;;;10.90;1.00;;;;;;5052304;28;20524;-73
2022/10/04 07:34:36;;;;;;;0.60;0.10;;;11.00;1.00;;;;;;5042656;28;20475;-71
2022/10/04 07:37:09;;;;;;;0.57;0.10;;;11.00;1.00;;;;;;5032255;28;20503;-71
2022/10/04 07:39:45;;;;;;;0.60;0.10;;;11.00;1.00;;;;;;5033448;28;20448;-72
2022/10/04 07:42:22;;;;;;;0.50;0.10;;;11.10;1.00;;;;;;5033880;28;21188;-73
2022/10/04 07:45:04;;;;;;;0.53;0.10;;;11.20;1.00;;;;;;5033586;28;20491;-72
2022/10/04 07:47:32;;;;;;;0.50;0.10;;;11.20;1.00;;;;;;5032784;28;20450;-71
2022/10/04 07:50:14;;;;;;;0.50;0.10;;;11.20;1.00;;;;;;5031936;28;20497;-71
2022/10/04 07:52:51;;;;;;;0.60;0.10;;;11.20;1.00;;;;;;5031762;28;21222;-72
2022/10/04 07:55:27;;;;;;;0.60;0.10;;;11.30;1.00;;;;;;5032448;28;20455;-72
2022/10/04 07:58:13;;;;;;;0.50;0.10;;;11.30;1.00;;;;;;5034364;28;20485;-72
2022/10/04 08:00:50;;;;;;;0.60;0.10;;;11.30;1.00;;;;;;5038882;28;20451;-73
2022/10/04 08:03:34;;;;;;;0.60;0.10;;;11.40;1.00;;;;;;5035380;28;20477;-71
2022/10/04 08:06:11;;;;;;;0.60;0.10;;;11.40;1.00;;;;;;5038889;28;20476;-72
2022/10/04 08:09:07;;;;;;;0.60;0.10;;;11.40;1.00;;;;;;5039147;28;20427;-71
2022/10/04 08:11:48;;;;;;;0.60;0.10;;;11.50;1.00;;;;;;5033036;28;20435;-74
2022/10/04 08:14:27;;;;;;;0.60;0.10;;;11.60;1.00;;;;;;5027961;28;20795;-72
2022/10/04 08:17:10;;;;;;;0.60;0.10;;;11.60;1.00;;;;;;5031580;28;20435;-71
2022/10/04 08:19:56;;;;;;;0.60;0.10;;;11.60;1.00;;;;;;5031503;28;20423;-72
2022/10/04 08:22:33;;;;;;;0.60;0.10;;;11.70;1.00;;;;;;5031767;28;20439;-73
2022/10/04 08:25:11;;;;;;;0.60;0.10;;;11.80;1.00;;;;;;5031164;28;20544;-74
2022/10/04 08:30:59;;;;;;;0.60;0.10;;;11.80;1.00;;;;;;5032024;28;20451;-73
2022/10/04 08:33:44;;;;;;;0.60;0.10;;;12.00;1.00;;;;;;5030859;28;20513;-73
2022/10/04 08:36:23;;;;;;;0.60;0.10;;;12.00;1.00;;;;;;5031487;28;20478;-73
2022/10/04 08:38:57;;;;;;;0.60;0.20;;;12.10;1.00;;;;;;5031814;28;20424;-72
2022/10/04 08:42:16;;;;;;;0.60;0.10;;;12.10;1.00;;;;;;5031491;28;20467;-73
2022/10/04 08:45:31;;;;;;;0.60;0.10;;;12.10;1.00;;;;;;5031158;28;21054;-73
2022/10/04 08:48:31;;;;;;;0.60;0.10;;;12.20;1.00;;;;;;4996127;28;20458;-73
2022/10/04 08:51:28;;;;;;;0.57;0.10;;;12.20;1.00;;;;;;5031185;28;21138;-73
2022/10/04 08:54:28;;;;;;;0.60;0.10;;;12.20;1.00;;;;;;5030520;28;21053;-75
2022/10/04 08:57:14;;;;;;;0.60;0.10;;;12.30;1.00;;;;;;5031239;28;20439;-74
2022/10/04 09:00:12;;;;;;;0.60;0.10;;;12.40;1.00;;;;;;5031346;28;20444;-72
2022/10/04 09:03:09;;;;;;;0.60;0.10;;;12.50;1.00;;;;;;5031065;28;20448;-72
2022/10/04 09:05:58;;;;;;;0.60;0.10;;;12.60;1.00;;;;;;5031360;28;20487;-73
2022/10/04 09:09:03;;;;;;;0.60;0.10;;;12.50;1.00;;;;;;5032006;28;20447;-73
2022/10/04 09:11:57;;;;;;;0.60;0.10;;;12.60;1.00;;;;;;5031407;28;20473;-73
2022/10/04 09:14:51;;;;;;;0.60;0.10;;;12.70;1.00;;;;;;5032055;28;20459;-75
2022/10/04 09:17:21;;;;;;;0.60;0.10;;;12.70;1.00;;;;;;5032335;28;20471;-74
2022/10/04 09:20:02;;;;;;;0.60;0.10;;;12.80;1.00;;;;;;5031247;28;20564;-72
2022/10/04 09:22:56;;;;;;;0.60;0.10;;;12.90;1.00;;;;;;5031001;28;20486;-74
2022/10/04 09:25:53;;;;;;;0.60;0.10;;;13.00;1.00;;;;;;5033737;28;20585;-73
2022/10/04 09:29:06;;;;;;;0.60;0.10;;;13.00;1.00;;;;;;5034396;28;20976;-73
2022/10/04 09:32:15;;;;;;;0.60;0.10;;;13.10;1.00;;;;;;5010066;28;20442;-74
2022/10/04 09:35:07;;;;;;;0.60;0.10;;;13.20;1.00;;;;;;5030140;28;21056;-74
2022/10/04 09:37:57;;;;;;;0.60;0.10;;;13.30;1.00;;;;;;5028405;28;20498;-72
2022/10/04 09:40:59;;;;;;;0.60;0.10;;;13.40;1.00;;;;;;5034877;28;20969;-73
2022/10/04 09:44:07;;;;;;;0.60;0.10;;;13.50;1.00;;;;;;5034414;28;20517;-71
2022/10/04 09:47:04;;;;;;;0.60;0.10;;;13.50;1.00;;;;;;5034792;28;20525;-73
2022/10/04 09:50:01;;;;;;;0.60;0.10;;;13.70;1.00;;;;;;5034500;28;20486;-72
2022/10/04 09:52:40;;;;;;;0.60;0.10;;;13.70;1.00;;;;;;5033625;28;20443;-74
2022/10/04 09:55:28;;;;;;;0.60;0.10;;;13.70;1.00;;;;;;5034688;28;20965;-72
2022/10/04 09:58:18;;;;;;;0.60;0.10;;;13.80;1.00;;;;;;5035340;28;20478;-72
2022/10/04 10:00:55;;;;;;;0.60;0.10;;;13.80;1.00;;;;;;5034668;28;20467;-74
2022/10/04 10:03:50;;;;;;;0.60;0.10;;;14.00;1.00;;;;;;5034565;28;20423;-75
2022/10/04 10:06:46;;;;;;;0.60;0.10;;;14.00;1.00;;;;;;5035391;28;20482;-72
2022/10/04 10:13:38;;;;;;;0.60;0.10;;;14.10;1.00;;;;;;5035652;28;20973;-73
2022/10/04 10:15:31;;;;;;;0.60;0.10;;;14.40;1.00;;;;;;4972614;28;20497;-75
2022/10/04 10:18:14;;;;;;;0.60;0.10;;;14.50;1.00;;;;;;5006004;28;20472;-73
2022/10/04 10:21:09;;;;;;;0.60;0.10;;;14.50;1.00;;;;;;5014256;28;20531;-72
2022/10/04 10:23:54;;;;;;;0.60;0.10;;;14.50;1.00;;;;;;5013573;28;20468;-73
2022/10/04 10:26:49;;;;;;;0.60;0.10;;;14.50;1.00;;;;;;5014144;28;20486;-75
2022/10/04 10:29:47;;;;;;;0.60;0.10;;;14.50;1.00;;;;;;5014155;28;20507;-72
2022/10/04 10:32:33;;;;;;;0.60;0.10;;;14.50;1.00;;;;;;5013745;28;20443;-74
2022/10/04 10:35:28;;;;;;;0.60;0.10;;;14.50;1.00;;;;;;5013874;28;20479;-75
2022/10/04 10:38:30;;;;;;;1.17;0.93;;;14.50;1.00;;;;;;5013386;28;20439;-73
2022/10/04 10:41:27;;;;;;;0.60;0.10;;;14.50;1.00;;;;;;5013429;28;20988;-73
2022/10/04 10:46:45;;;;;;;0.60;0.10;;;14.50;1.00;;;;;;5071518;28;20837;-75
2022/10/04 10:49:46;;;;;;;0.60;0.10;;;14.40;1.00;;;;;;5073526;28;20450;-74
2022/10/04 10:52:38;;;;;;;0.60;0.10;;;14.60;1.00;;;;;;5073040;28;20450;-74
2022/10/04 10:55:29;;;;;;;0.60;0.10;;;14.70;1.00;;;;;;5079343;28;20462;-73
2022/10/04 10:58:32;;;;;;;0.60;0.10;;;14.80;1.00;;;;;;5076382;28;20442;-74
2022/10/04 11:01:17;;;;;;;0.60;0.10;;;14.90;1.00;;;;;;5076368;28;20981;-74
2022/10/04 11:04:08;;;;;;;0.60;0.10;;;15.10;1.00;;;;;;5077144;28;20444;-74
2022/10/04 11:07:01;;;;;;;0.70;0.30;;;15.30;1.00;;;;;;5079952;28;20560;-74
2022/10/04 11:09:37;;;;;;;0.60;0.10;;;15.30;1.00;;;;;;5074486;28;20444;-73
2022/10/04 11:12:44;;;;;;;0.60;0.10;;;15.40;1.00;;;;;;5072718;28;20468;-74
2022/10/04 11:15:48;;;;;;;0.60;0.10;;;15.60;1.00;;;;;;5073075;28;20522;-74
2022/10/04 11:18:48;;;;;;;2.00;1.90;;;15.90;1.00;;;;;;5039344;28;20456;-73
2022/10/04 11:22:09;;;;;;;0.60;0.10;;;15.90;1.00;;;;;;5072726;28;20504;-74
2022/10/04 11:25:05;;;;;;;0.60;0.10;;;15.90;1.00;;;;;;5072094;28;20484;-75
2022/10/04 11:27:46;;;;;;;0.60;0.10;;;15.80;1.00;;;;;;5072439;28;20955;-74
2022/10/04 11:30:23;;;;;;;0.60;0.10;;;15.80;1.00;;;;;;5072681;28;20442;-73
2022/10/04 11:33:29;;;;;;;3.13;0.90;;;15.70;1.00;;;;;;5072058;28;20939;-74
2022/10/04 11:36:32;;;;;;;0.60;0.10;;;15.80;1.00;;;;;;5070941;28;20516;-75
2022/10/04 11:39:29;;;;;;;0.60;0.10;;;15.80;1.00;;;;;;5068827;28;20836;-74
2022/10/04 11:42:06;;;;;;;0.60;0.10;;;15.90;1.00;;;;;;5072419;28;20446;-74
2022/10/04 11:44:47;;;;;;;0.60;0.10;;;16.10;1.00;;;;;;5072270;28;20473;-74
2022/10/04 11:47:39;;;;;;;0.60;0.10;;;16.10;1.00;;;;;;5071863;28;20481;-74
2022/10/04 11:50:30;;;;;;;0.60;0.30;;;16.20;1.00;;;;;;5072080;28;20443;-74
2022/10/04 11:53:29;;;;;;;0.60;0.10;;;16.40;1.00;;;;;;5072118;28;20491;-75
2022/10/04 11:56:11;;;;;;;0.60;0.10;;;16.40;1.00;;;;;;5047549;28;21043;-74
2022/10/04 11:58:51;;;;;;;0.60;0.10;;;16.40;1.00;;;;;;5072128;28;20590;-75
2022/10/04 12:01:43;;;;;;;0.60;0.10;;;16.40;1.00;;;;;;5072151;28;20495;-75
2022/10/04 12:04:47;;;;;;;0.60;0.10;;;16.60;1.00;;;;;;5071572;28;20465;-75
2022/10/04 12:07:32;;;;;;;0.60;0.10;;;16.60;1.00;;;;;;5048916;28;20526;-74
2022/10/04 12:10:15;;;;;;;0.60;0.10;;;16.80;1.00;;;;;;5071897;28;20450;-75
2022/10/04 12:13:26;;;;;;;0.60;0.20;;;16.80;1.00;;;;;;5071283;28;20495;-74
2022/10/04 12:16:30;;;;;;;0.60;0.10;;;16.90;1.00;;;;;;5009755;28;20472;-74
2022/10/04 12:19:28;;;;;;;0.70;0.37;;;16.90;1.00;;;;;;5006275;28;20518;-75
2022/10/04 12:22:09;;;;;;;0.60;0.10;;;17.00;1.00;;;;;;5065009;28;20510;-74
2022/10/04 12:24:58;;;;;;;0.60;0.10;;;17.00;1.00;;;;;;5073546;28;20519;-75
2022/10/04 12:27:51;;;;;;;0.60;0.10;;;17.00;1.00;;;;;;5072986;28;20485;-75
2022/10/04 12:30:26;;;;;;;0.60;0.10;;;17.10;1.00;;;;;;5072098;28;20450;-75
2022/10/04 12:33:06;;;;;;;0.60;0.20;;;17.20;1.00;;;;;;5071165;28;20471;-75
2022/10/04 12:35:56;;;;;;;0.60;0.10;;;17.40;1.00;;;;;;5070939;28;20489;-74
2022/10/04 12:38:53;;;;;;;0.60;0.10;;;17.40;1.00;;;;;;5071717;28;20510;-74
2022/10/04 12:41:34;;;;;;;0.60;0.30;;;17.40;1.00;;;;;;5071855;28;20441;-74
2022/10/04 12:44:17;;;;;;;0.60;0.20;;;17.50;1.00;;;;;;5070692;28;20498;-75
2022/10/04 12:46:56;;;;;;;0.60;0.20;;;17.50;1.00;;;;;;5071672;28;20526;-74
2022/10/04 12:49:39;;;;;;;0.60;0.10;;;17.60;1.00;;;;;;5072023;28;20441;-75
2022/10/04 12:52:15;;;;;;;0.60;0.20;;;17.70;1.00;;;;;;5071506;28;20476;-74
2022/10/04 12:54:46;;;;;;;0.60;0.10;;;17.80;1.00;;;;;;5071817;28;20481;-75
2022/10/04 12:57:33;;;;;;;0.60;0.10;;;17.80;1.00;;;;;;5071643;28;20916;-75
2022/10/04 13:00:13;;;;;;;0.60;0.10;;;17.90;1.00;;;;;;5073986;28;20518;-74
2022/10/04 13:02:57;;;;;;;0.60;0.10;;;18.00;1.00;;;;;;5075029;28;20445;-75
2022/10/04 13:05:33;;;;;;;0.60;0.10;;;18.10;1.00;;;;;;5075258;28;20462;-74
2022/10/04 13:08:22;;;;;;;0.60;0.20;;;18.10;1.00;;;;;;5075059;28;20563;-76
2022/10/04 13:11:19;;;;;;;1.03;0.93;;;18.10;1.00;;;;;;5075729;28;20433;-74
2022/10/04 13:14:19;;;;;;;0.60;0.10;;;18.20;1.00;;;;;;5075046;28;20931;-75
2022/10/04 13:16:55;;;;;;;0.60;0.10;;;18.20;1.00;;;;;;5063240;28;20951;-75
2022/10/04 13:19:51;;;;;;;0.60;0.10;;;;;;;;;;5074845;28;20485;-75
2022/10/04 13:22:30;;;;;;;0.60;0.10;;;18.30;1.00;;;;;;5074945;28;20986;-75
2022/10/04 13:25:44;;;;;;;0.60;0.10;;;18.30;1.00;;;;;;5074684;28;20556;-73
2022/10/04 13:28:23;;;;;;;0.60;0.30;;;18.30;1.00;;;;;;5075243;28;20489;-74
2022/10/04 13:31:00;;;;;;;0.60;0.10;;;18.40;1.00;;;;;;5074722;28;20783;-75
2022/10/04 13:33:36;;;;;;;0.60;0.10;;;18.40;1.00;;;;;;5074211;28;20519;-74
2022/10/04 13:36:09;;;;;;;0.60;0.10;;;18.40;1.00;;;;;;5074435;28;20514;-75
2022/10/04 13:38:55;;;;;;;0.60;0.10;;;18.50;1.00;;;;;;5074428;28;20515;-76
2022/10/04 13:41:35;;;;;;;0.60;0.10;;;18.50;1.00;;;;;;5074837;28;20437;-75
2022/10/04 13:44:20;;;;;;;0.60;0.10;;;18.60;1.00;;;;;;5073986;28;20445;-76
2022/10/04 13:47:04;;;;;;;0.60;0.10;;;18.60;1.00;;;;;;5074319;28;20982;-74
2022/10/04 13:49:48;;;;;;;0.60;0.10;;;18.70;1.00;;;;;;5074360;28;20970;-74
2022/10/04 13:58:28;;;;;;;1.40;1.27;;;18.70;1.00;;;;;;5074089;28;20946;-75
2022/10/04 14:01:16;;;;;;;0.60;0.10;;;18.70;1.00;;;;;;5073636;28;20824;-75
2022/10/04 14:03:57;;;;;;;0.60;0.10;;;18.80;1.00;;;;;;5073712;28;20441;-76
2022/10/04 14:06:49;;;;;;;0.60;0.10;;;18.80;1.00;;;;;;5073876;28;21009;-75
2022/10/04 14:09:44;;;;;;;0.60;0.10;;;18.80;1.00;;;;;;5074220;28;20449;-74
2022/10/04 14:12:40;;;;;;;1.00;0.90;;;18.80;1.00;;;;;;5073811;28;20948;-74
2022/10/04 14:15:34;;;;;;;0.60;0.10;;;18.90;1.00;;;;;;5073668;28;21057;-75
2022/10/04 14:18:51;;;;;;;0.60;0.10;;;18.90;1.00;;;;;;5073982;28;20418;-74
2022/10/04 14:21:38;;;;;;;0.60;0.10;;;18.90;1.00;;;;;;5073650;28;20792;-74
2022/10/04 14:24:44;;;;;;;0.60;0.10;;;19.00;1.00;;;;;;5073758;28;21005;-75
2022/10/04 14:27:57;;;;;;;0.60;0.10;;;19.00;1.00;;;;;;5073856;28;20473;-74
2022/10/04 14:30:33;;;;;;;0.60;0.10;;;19.10;1.00;;;;;;5073586;28;21258;-75
2022/10/04 14:33:36;;;;;;;0.60;0.10;;;19.10;1.00;;;;;;5073227;28;20441;-75
2022/10/04 14:36:35;;;;;;;0.60;0.10;;;19.20;1.00;;;;;;4998785;28;20501;-75